FARRENBERG (FAR1) Information & Weather

WARNING: the data listed below is for informational purposes only and should be confirmed from official sources. Data presented here on this page may be out of date, incomplete or wrong.

Name: FARRENBERG
Identifier: FAR1

Coord: 48.3855N 9.0767E
Var: 1°E

Country: Germany
Municipality: UNKNOWN,
Time Zone: (GMT+01:00) Europe/Berlin

Station Elevation: 2605 ft
Pressure Altitude: 2600 ft
Density Altitude: 2678 ft
Freezing Level: 7150 ft

Civil Twilight
Morning: 03:32 UTC  (04:32 local)
Evening: 19:10 UTC  (20:10 local)

METAR EDDS 312350Z 33016KT 4600 BR BKN003 09/09 Q1006= [toggle past 4 hours]
(Station: EDDS; distance: 19.2 nm)

TAF LSZR 291425Z 2915/2924 27006KT CAVOK=
(Station: LSZR; distance: 57.5 nm)

Upper Winds

Source   Valid 375 1000 2000 2500 3000 5000 6000 8000 10000 12000 14000 16000 18000 21000 24000 26000 30000 34000 39000 44000 52000 60000
GFS 2915/2918 2308+16 2308+14 2308+13 2309+11 2310+09 2311+04 2412-01 2317-05 2430-08 2428-12 2426-16 2526-20 2528-26 2629-31 2631-37 2635-43 2642-51 2651-56 2655-55 2642-53 2530-54 2418-53

SIGMET/AIRMET

None within 25nm.

PIREP

None within 25nm.

NOTAM

None within 25nm.

Runway Data

Frequencies

Nearby Airports

Nearby Navaids